createdAt,value
2023-03-23T15:59:44.366Z,17.00
2023-03-23T16:02:15.014Z,17.00
2023-03-23T16:04:44.798Z,17.40
2023-03-23T16:07:14.195Z,16.80
2023-03-23T16:09:44.703Z,16.80
2023-03-23T16:12:13.381Z,17.20
2023-03-23T16:14:41.019Z,17.20
2023-03-23T16:17:10.519Z,16.70
2023-03-23T16:19:38.214Z,17.10
2023-03-23T16:22:05.304Z,16.80
2023-03-23T16:24:32.427Z,16.70
2023-03-23T16:26:59.499Z,16.60
2023-03-23T16:29:46.808Z,16.80
2023-03-23T16:32:14.890Z,16.60
2023-03-23T16:34:42.001Z,16.50
2023-03-23T16:37:09.543Z,16.70
2023-03-23T16:39:36.643Z,16.70
2023-03-23T16:42:03.755Z,16.50
2023-03-23T16:44:30.857Z,16.40
2023-03-23T16:46:57.951Z,17.00
2023-03-23T16:49:25.226Z,16.90
2023-03-23T16:51:52.343Z,16.60
2023-03-23T16:54:19.480Z,16.60
2023-03-23T16:56:48.058Z,16.80
2023-03-23T16:59:15.356Z,16.70
2023-03-23T17:01:43.137Z,16.60
2023-03-23T17:04:10.928Z,16.70
2023-03-23T17:06:38.207Z,17.20
2023-03-23T17:09:06.353Z,16.60
2023-03-23T17:11:33.489Z,16.60
2023-03-23T17:14:00.998Z,16.70
2023-03-23T17:16:28.103Z,16.70
2023-03-23T17:18:55.354Z,16.60
2023-03-23T17:21:25.557Z,16.70
2023-03-23T17:23:52.995Z,16.70
2023-03-23T17:26:20.184Z,16.80
2023-03-23T17:28:47.297Z,16.60
2023-03-23T17:31:14.437Z,16.50
2023-03-23T17:33:42.497Z,16.80
2023-03-23T17:36:09.661Z,16.80
2023-03-23T17:38:36.828Z,16.70
2023-03-23T17:41:06.361Z,16.60
2023-03-23T17:43:33.730Z,16.60
2023-03-23T17:46:00.874Z,16.70
2023-03-23T17:48:28.054Z,16.50
2023-03-23T17:50:57.584Z,16.60
2023-03-23T17:53:25.788Z,16.50
2023-03-23T17:55:53.079Z,16.50
2023-03-23T17:58:20.291Z,16.80
2023-03-23T18:00:47.479Z,16.80
2023-03-23T18:03:14.600Z,16.80
2023-03-23T18:05:42.233Z,16.50
2023-03-23T18:08:09.763Z,16.60
2023-03-23T18:10:38.687Z,16.40
2023-03-23T18:13:12.495Z,16.70
2023-03-23T18:15:49.267Z,17.00
2023-03-23T18:18:38.978Z,16.80
2023-03-23T18:21:07.658Z,16.80
2023-03-23T18:23:38.962Z,16.80
2023-03-23T18:26:09.359Z,17.20
2023-03-23T18:28:36.875Z,17.00
2023-03-23T18:31:04.394Z,17.20
2023-03-23T18:33:31.529Z,17.30
2023-03-23T18:35:59.392Z,17.10
2023-03-23T18:38:27.370Z,17.10
2023-03-23T18:40:54.462Z,17.30
2023-03-23T18:43:21.666Z,17.10
2023-03-23T18:45:52.531Z,17.10
2023-03-23T18:48:19.649Z,17.00
2023-03-23T18:50:50.853Z,17.40
2023-03-23T18:53:18.005Z,17.80
2023-03-23T18:55:45.432Z,18.00
2023-03-23T18:58:13.244Z,18.10
2023-03-23T19:00:40.718Z,18.10
2023-03-23T19:03:07.993Z,18.30
2023-03-23T19:05:35.985Z,18.40
2023-03-23T19:08:03.691Z,18.30
2023-03-23T19:10:31.150Z,18.20
2023-03-23T19:12:58.303Z,18.30
2023-03-23T19:15:25.478Z,18.20
2023-03-23T19:17:55.954Z,18.20
2023-03-23T19:20:45.502Z,18.30
2023-03-23T19:23:10.901Z,18.30
2023-03-23T19:25:37.974Z,18.20
2023-03-23T19:30:35.277Z,18.20
2023-03-23T19:33:02.426Z,18.00
2023-03-23T19:35:30.836Z,18.00
2023-03-23T19:37:58.013Z,18.10
2023-03-23T19:40:39.126Z,17.90
2023-03-23T19:43:08.433Z,18.20
2023-03-23T19:45:35.693Z,17.80
2023-03-23T19:48:03.140Z,18.20
2023-03-23T19:50:31.113Z,18.20
2023-03-23T19:53:00.173Z,18.10
2023-03-23T19:55:27.776Z,17.80
2023-03-23T19:57:55.276Z,18.00
2023-03-23T20:00:24.460Z,17.80
2023-03-23T20:02:52.180Z,18.40
2023-03-23T20:05:19.268Z,18.60
2023-03-23T20:07:51.404Z,18.70
2023-03-23T20:10:19.096Z,18.70
2023-03-23T20:12:46.599Z,18.80
2023-03-23T20:15:13.714Z,18.50
2023-03-23T20:17:41.125Z,18.50
2023-03-23T20:20:10.435Z,18.40
2023-03-23T20:22:37.879Z,18.50
2023-03-23T20:25:05.216Z,18.60
2023-03-23T20:27:32.538Z,18.60
2023-03-23T20:29:59.737Z,18.70
2023-03-23T20:32:29.099Z,18.60
2023-03-23T20:34:56.985Z,18.80
2023-03-23T20:37:24.551Z,18.80
2023-03-23T20:39:51.679Z,18.60
2023-03-23T20:42:18.825Z,18.30
2023-03-23T20:44:45.952Z,17.90
2023-03-23T20:47:13.068Z,17.80
2023-03-23T20:49:40.396Z,17.90
2023-03-23T20:52:08.900Z,17.80
2023-03-23T20:54:37.927Z,17.70
2023-03-23T20:57:05.241Z,17.90
2023-03-23T20:59:32.374Z,17.80
2023-03-23T21:01:59.474Z,18.10
2023-03-23T21:04:27.496Z,18.10
2023-03-23T21:06:54.859Z,17.80
2023-03-23T21:09:22.053Z,17.90
2023-03-23T21:11:49.264Z,18.10
2023-03-23T21:14:16.425Z,18.30
2023-03-23T21:16:43.800Z,18.10
2023-03-23T21:19:11.728Z,18.20
2023-03-23T21:21:55.353Z,18.40
2023-03-23T21:24:26.404Z,18.20
2023-03-23T21:26:54.145Z,18.20
2023-03-23T21:29:23.933Z,18.20
2023-03-23T21:31:57.792Z,18.30
2023-03-23T21:34:34.459Z,18.20
2023-03-23T21:37:01.568Z,18.40
2023-03-23T21:39:28.762Z,18.10
2023-03-23T21:41:55.872Z,18.00
2023-03-23T21:44:22.990Z,18.00
2023-03-23T21:46:52.224Z,18.10
2023-03-23T21:49:19.475Z,18.00
2023-03-23T21:51:48.700Z,18.50
2023-03-23T21:54:15.824Z,18.10
2023-03-23T21:56:43.037Z,17.90
2023-03-23T21:59:10.273Z,18.30
2023-03-23T22:01:37.489Z,17.90
2023-03-23T22:04:04.863Z,18.30
2023-03-23T22:06:34.319Z,17.80
2023-03-23T22:09:02.106Z,18.10
2023-03-23T22:11:31.056Z,18.30
2023-03-23T22:13:58.495Z,18.40
2023-03-23T22:16:26.134Z,18.30
2023-03-23T22:18:53.642Z,18.00
2023-03-23T22:21:22.140Z,17.00
2023-03-23T22:23:49.360Z,17.50
2023-03-23T22:26:16.792Z,17.90
2023-03-23T22:28:45.700Z,18.10
2023-03-23T22:31:18.441Z,18.10
2023-03-23T22:33:46.096Z,18.10
2023-03-23T22:36:13.487Z,18.20
2023-03-23T22:38:41.377Z,17.50
2023-03-23T22:41:08.754Z,18.20
2023-03-23T22:43:36.220Z,17.70
2023-03-23T22:46:04.051Z,17.30
2023-03-23T22:48:31.525Z,17.20
2023-03-23T22:50:58.626Z,17.00
2023-03-23T22:53:25.887Z,17.10
2023-03-23T22:55:54.434Z,17.10
2023-03-23T22:58:21.608Z,17.30
2023-03-23T23:00:50.162Z,17.40
2023-03-23T23:03:17.520Z,17.50
2023-03-23T23:05:47.345Z,18.00
2023-03-23T23:08:16.583Z,17.40
2023-03-23T23:10:46.345Z,18.00
2023-03-23T23:13:13.971Z,17.40
2023-03-23T23:15:43.417Z,17.20
2023-03-23T23:18:10.528Z,17.20
2023-03-23T23:20:37.684Z,17.30
2023-03-23T23:23:05.145Z,17.10
2023-03-23T23:25:32.466Z,17.00
2023-03-23T23:28:00.119Z,17.10
2023-03-23T23:30:27.770Z,17.40
2023-03-23T23:32:55.349Z,17.70
2023-03-23T23:35:22.702Z,18.00
2023-03-23T23:37:50.013Z,17.80
2023-03-23T23:40:17.443Z,18.10
2023-03-23T23:42:45.547Z,17.80
2023-03-23T23:45:12.693Z,17.70
2023-03-23T23:47:40.040Z,17.80
2023-03-23T23:50:08.568Z,17.90
2023-03-23T23:52:36.097Z,17.50
2023-03-23T23:55:04.094Z,17.60
2023-03-23T23:57:31.376Z,17.70
2023-03-23T23:59:58.482Z,18.00
